This is the latest recevied weather packets stored in our database for station/object N5RPG. If no packets are shown the sender has not sent any weather packets the latest 10 day(s).
| Time | Temp. | Humidity | Pressure | Rain* | Wind** | Luminosity | Snow |
|---|---|---|---|---|---|---|---|
| 1777501151 | 18.33° C | 98% | 1012.2 hPa | 4.83 mm | - | 54 W/m² | - |
| 1777500850 | 18.33° C | 98% | 1012.3 hPa | 3.56 mm | - | 42 W/m² | - |
| 1777500546 | 18.33° C | 98% | 1013.7 hPa | 1.78 mm | - | 26 W/m² | - |
| 1777500243 | 18.33° C | 98% | 1013.8 hPa | 3.56 mm | - | 18 W/m² | - |
| 1777499939 | 18.33° C | 98% | 1013.8 hPa | 4.32 mm | - | 31 W/m² | - |
| 1777499635 | 18.33° C | 98% | 1013.7 hPa | 3.56 mm | - | 30 W/m² | - |
| 1777499333 | 18.33° C | 98% | 1013.8 hPa | 10.16 mm | - | 30 W/m² | - |
| 1777499030 | 18.33° C | 98% | 1013.6 hPa | 30.73 mm | - | 31 W/m² | - |
| 1777498727 | 18.33° C | 98% | 1012.7 hPa | 36.58 mm | - | 58 W/m² | - |
| 1777498423 | 18.33° C | 98% | 1013.9 hPa | 46.23 mm | - | 27 W/m² | - |
| 1777498120 | 18.33° C | 97% | 1014.9 hPa | 62.99 mm | - | 23 W/m² | - |
| 1777497818 | 18.33° C | 97% | 1015.3 hPa | 43.69 mm | - | 16 W/m² | - |
| 1777497514 | 18.33° C | 97% | 1014.8 hPa | 11.94 mm | - | 9 W/m² | - |
| 1777497210 | 18.33° C | 97% | 1014.5 hPa | 3.05 mm | - | 1 W/m² | - |
| 1777496907 | 18.33° C | 97% | 1013 hPa | 1.27 mm | - | 2 W/m² | - |
| 1777496604 | 18.33° C | 97% | 1012.9 hPa | 1.27 mm | - | 4 W/m² | - |
| 1777496300 | 18.33° C | 97% | 1012.6 hPa | 1.27 mm | - | 8 W/m² | - |
| 1777495996 | 18.33° C | 97% | 1012.6 hPa | 1.27 mm | - | 13 W/m² | - |
| 1777495692 | 18.33° C | 97% | 1012.8 hPa | 0.51 mm | - | 19 W/m² | - |
| 1777495389 | 18.33° C | 97% | 1013.6 hPa | 0 mm | - | 11 W/m² | - |
| 1777495085 | 18.33° C | 97% | 1013.5 hPa | 0 mm | - | 18 W/m² | - |
| 1777494783 | 18.33° C | 97% | 1012.7 hPa | 0 mm | - | 34 W/m² | - |
| 1777494479 | 18.33° C | 97% | 1012.8 hPa | 0 mm | - | 46 W/m² | - |
| 1777494176 | 18.33° C | 97% | 1012.9 hPa | 0 mm | - | 20 W/m² | - |
| 1777493873 | 18.33° C | 97% | 1012.8 hPa | 0 mm | - | 44 W/m² | - |
* Rain latest hour (hover to see other rain measurements)
** Current wind speed in m/s (hover to see current wind gust speed)